Time;durP1;ratioP1;P1;durP2;ratioP2;P2;SDS_P1;SDS_P2;PMS_P1;PMS_P2;Temp;Humidity;BMP_temperature;BMP_pressure;BME280_temperature;BME280_humidity;BME280_pressure;Samples;Min_cycle;Max_cycle;Signal;HPM_P1;HPM_P2
2022/06/25 00:01:10;;;;;;;2.47;1.50;;;17.60;98.00;;;;;;4993476;28;20452;-71
2022/06/25 00:03:39;;;;;;;1.43;1.40;;;17.50;98.00;;;;;;4993548;28;21074;-72
2022/06/25 00:06:07;;;;;;;1.70;1.40;;;17.50;98.00;;;;;;4993192;28;20519;-71
2022/06/25 00:08:37;;;;;;;1.50;1.40;;;17.80;98.00;;;;;;4993300;28;20453;-72
2022/06/25 00:11:05;;;;;;;1.90;1.50;;;17.70;98.00;;;;;;4993141;28;20468;-72
2022/06/25 00:13:32;;;;;;;1.50;1.30;;;17.70;98.00;;;;;;4993191;28;20467;-71
2022/06/25 00:16:00;;;;;;;2.43;1.47;;;17.50;98.00;;;;;;4992999;28;20840;-72
2022/06/25 00:18:28;;;;;;;1.70;1.30;;;17.40;98.00;;;;;;4992145;28;20483;-72
2022/06/25 00:20:57;;;;;;;2.30;1.70;;;17.40;98.00;;;;;;4993024;28;20471;-71
2022/06/25 00:23:24;;;;;;;1.50;1.30;;;17.40;98.00;;;;;;4993299;28;20463;-72
2022/06/25 00:25:51;;;;;;;1.40;1.30;;;17.40;98.00;;;;;;4993222;28;20967;-72
2022/06/25 00:28:19;;;;;;;1.40;1.40;;;17.50;98.00;;;;;;4991789;28;20455;-71
2022/06/25 00:30:46;;;;;;;1.50;1.43;;;17.40;98.00;;;;;;4991893;28;20479;-72
2022/06/25 00:33:13;;;;;;;1.60;1.30;;;17.50;98.00;;;;;;4992903;28;20918;-72
2022/06/25 00:35:40;;;;;;;1.30;1.23;;;17.40;98.00;;;;;;4992831;28;20859;-72
2022/06/25 00:38:09;;;;;;;1.30;1.30;;;17.40;98.00;;;;;;4976021;28;20448;-71
2022/06/25 00:40:37;;;;;;;2.43;1.50;;;17.50;98.00;;;;;;4992974;28;20457;-72
2022/06/25 00:43:04;;;;;;;1.50;1.33;;;17.50;98.00;;;;;;4992736;28;20823;-71
2022/06/25 00:45:31;;;;;;;1.47;1.20;;;17.60;98.00;;;;;;4991614;28;20472;-72
2022/06/25 00:47:58;;;;;;;1.50;1.40;;;17.50;98.00;;;;;;4992662;28;20840;-71
2022/06/25 00:50:25;;;;;;;14.23;1.60;;;17.40;98.00;;;;;;4992361;28;20456;-71
2022/06/25 00:52:58;;;;;;;2.13;1.57;;;17.30;98.00;;;;;;4992532;28;20452;-72
2022/06/25 00:55:30;;;;;;;1.70;1.50;;;17.00;98.00;;;;;;4991296;28;20798;-71
2022/06/25 00:58:00;;;;;;;1.77;1.40;;;17.00;98.00;;;;;;4991304;28;20465;-72
2022/06/25 01:00:28;;;;;;;2.23;1.40;;;17.00;98.00;;;;;;4991449;28;20531;-72
2022/06/25 01:02:57;;;;;;;1.57;1.50;;;17.10;98.00;;;;;;4992137;28;20472;-71
2022/06/25 01:05:24;;;;;;;1.40;1.17;;;17.00;98.00;;;;;;4990933;28;20466;-72
2022/06/25 01:07:52;;;;;;;1.83;1.70;;;16.90;98.00;;;;;;4992053;28;20456;-71
2022/06/25 01:10:19;;;;;;;1.97;1.67;;;16.90;98.00;;;;;;4992577;28;20460;-72
2022/06/25 01:12:49;;;;;;;1.77;1.50;;;16.70;98.00;;;;;;4992415;28;21101;-72
2022/06/25 01:15:18;;;;;;;1.50;1.37;;;16.60;98.00;;;;;;4992272;28;21002;-72
2022/06/25 01:17:46;;;;;;;1.30;1.20;;;16.70;98.00;;;;;;4991063;28;20825;-72
2022/06/25 01:20:17;;;;;;;1.60;1.40;;;16.80;98.00;;;;;;4992064;28;20468;-72
2022/06/25 01:22:46;;;;;;;2.50;1.40;;;16.80;98.00;;;;;;4992249;28;20460;-71
2022/06/25 01:25:15;;;;;;;1.80;1.33;;;16.80;98.00;;;;;;4992022;28;20611;-72
2022/06/25 01:27:42;;;;;;;1.90;1.40;;;16.80;98.00;;;;;;4990832;28;20460;-71
2022/06/25 01:30:11;;;;;;;3.97;1.70;;;16.90;98.00;;;;;;4991997;28;20895;-72
2022/06/25 01:32:38;;;;;;;1.50;1.40;;;16.80;98.00;;;;;;4992132;28;20459;-72
2022/06/25 01:35:07;;;;;;;1.40;1.30;;;16.80;98.00;;;;;;4991758;28;20511;-71
2022/06/25 01:37:35;;;;;;;2.20;1.37;;;16.70;98.00;;;;;;4992092;28;20457;-72
2022/06/25 01:40:05;;;;;;;1.57;1.37;;;16.80;98.00;;;;;;4990720;28;20460;-71
2022/06/25 01:45:19;;;;;;;1.30;1.10;;;16.80;98.00;;;;;;4991846;28;20444;-72
2022/06/25 01:47:54;;;;;;;1.43;1.30;;;16.70;98.00;;;;;;4991947;28;20459;-72
2022/06/25 01:50:21;;;;;;;1.50;1.37;;;16.70;98.00;;;;;;4991813;28;20551;-71
2022/06/25 01:52:48;;;;;;;6.03;1.67;;;16.70;98.00;;;;;;4993633;28;20456;-72
2022/06/25 01:55:17;;;;;;;1.77;1.50;;;16.80;98.00;;;;;;4995721;28;20599;-72
2022/06/25 01:57:45;;;;;;;1.93;1.40;;;16.70;98.00;;;;;;4995868;28;20962;-71
2022/06/25 02:00:18;;;;;;;1.27;1.27;;;16.60;98.00;;;;;;4995684;28;20514;-72
2022/06/25 02:02:45;;;;;;;1.90;1.67;;;16.50;98.00;;;;;;4995673;28;20468;-72
2022/06/25 02:05:15;;;;;;;2.33;2.13;;;16.50;98.00;;;;;;4995804;28;20460;-71
2022/06/25 02:07:42;;;;;;;1.30;1.23;;;16.60;98.00;;;;;;4994094;28;20465;-72
2022/06/25 02:10:11;;;;;;;1.80;1.50;;;16.60;98.00;;;;;;4995155;28;20966;-72
2022/06/25 02:12:39;;;;;;;2.03;1.67;;;16.70;98.00;;;;;;4995613;28;20530;-72
2022/06/25 02:15:07;;;;;;;2.07;1.43;;;16.60;98.00;;;;;;4995216;28;20457;-72
2022/06/25 02:17:34;;;;;;;3.87;1.60;;;16.50;98.00;;;;;;4995374;28;20469;-72
2022/06/25 02:20:02;;;;;;;1.33;1.30;;;16.50;98.00;;;;;;4995203;28;20456;-72
2022/06/25 02:22:29;;;;;;;1.53;1.43;;;16.40;98.00;;;;;;4995675;28;20468;-71
2022/06/25 02:24:56;;;;;;;1.60;1.40;;;16.40;98.00;;;;;;4994059;28;20456;-71
2022/06/25 02:27:24;;;;;;;2.13;1.83;;;16.50;98.00;;;;;;4994078;28;20518;-72
2022/06/25 02:29:52;;;;;;;1.40;1.40;;;16.20;98.00;;;;;;4995212;28;20981;-71
2022/06/25 02:32:19;;;;;;;1.77;1.50;;;16.10;98.00;;;;;;4995099;28;20460;-72
2022/06/25 02:34:46;;;;;;;1.47;1.33;;;16.10;98.00;;;;;;4995111;28;20452;-71
2022/06/25 02:37:14;;;;;;;1.40;1.30;;;16.00;98.00;;;;;;4994101;28;21014;-72
2022/06/25 02:39:41;;;;;;;1.40;1.37;;;16.00;98.00;;;;;;4994100;28;20475;-71
2022/06/25 02:42:08;;;;;;;1.50;1.40;;;16.10;98.00;;;;;;4995013;28;20479;-72
2022/06/25 02:44:35;;;;;;;1.40;1.33;;;16.10;98.00;;;;;;4995053;28;20480;-71
2022/06/25 02:47:04;;;;;;;1.33;1.30;;;16.10;98.00;;;;;;4994969;28;21014;-71
2022/06/25 02:49:31;;;;;;;1.40;1.10;;;16.20;98.00;;;;;;4994933;28;20457;-72
2022/06/25 02:51:58;;;;;;;1.57;1.40;;;16.00;98.00;;;;;;4993660;28;20459;-72
2022/06/25 02:54:25;;;;;;;1.93;1.23;;;16.00;98.00;;;;;;4994766;28;20467;-72
2022/06/25 02:59:40;;;;;;;1.40;1.30;;;15.90;98.00;;;;;;4994719;28;20447;-72
2022/06/25 03:02:09;;;;;;;1.77;1.70;;;15.90;98.00;;;;;;4994542;28;20464;-71
2022/06/25 03:04:36;;;;;;;1.30;1.20;;;15.90;98.00;;;;;;4993170;28;20472;-71
2022/06/25 03:07:04;;;;;;;1.87;1.43;;;15.90;98.00;;;;;;4993266;28;20523;-71
2022/06/25 03:09:31;;;;;;;1.60;1.50;;;15.90;98.00;;;;;;4994414;28;20954;-71
2022/06/25 03:11:58;;;;;;;1.40;1.33;;;15.90;98.00;;;;;;4993086;28;20471;-71
2022/06/25 03:14:26;;;;;;;1.60;1.23;;;15.80;98.00;;;;;;4994242;28;20509;-71
2022/06/25 03:16:53;;;;;;;1.20;1.10;;;15.80;98.00;;;;;;4994295;28;20492;-72
2022/06/25 03:19:21;;;;;;;1.43;1.30;;;15.80;98.00;;;;;;4994452;28;20456;-72
2022/06/25 03:21:48;;;;;;;1.73;1.53;;;15.90;98.00;;;;;;4994275;28;20475;-72
2022/06/25 03:24:15;;;;;;;2.30;1.60;;;15.80;98.00;;;;;;4992993;28;20845;-72
2022/06/25 03:26:43;;;;;;;2.47;1.50;;;15.80;98.00;;;;;;4994166;28;20459;-71
2022/06/25 03:29:15;;;;;;;1.87;1.40;;;15.80;98.00;;;;;;4992713;28;20524;-72
2022/06/25 03:31:42;;;;;;;1.33;1.20;;;15.90;98.00;;;;;;4994236;28;20525;-72
2022/06/25 03:34:09;;;;;;;2.50;1.53;;;15.90;98.00;;;;;;4993966;28;20460;-72
2022/06/25 03:36:38;;;;;;;1.50;1.20;;;15.90;98.00;;;;;;4993164;28;20492;-71
2022/06/25 03:39:05;;;;;;;1.90;1.40;;;15.80;98.00;;;;;;4994197;28;20456;-72
2022/06/25 03:41:37;;;;;;;1.40;1.30;;;15.90;98.00;;;;;;4994132;28;20460;-71
2022/06/25 03:44:05;;;;;;;1.57;1.20;;;15.90;98.00;;;;;;4992864;28;20488;-71
2022/06/25 03:46:33;;;;;;;1.53;1.40;;;15.90;98.00;;;;;;4993909;28;20837;-71
2022/06/25 03:49:00;;;;;;;1.87;1.30;;;16.00;98.00;;;;;;4993844;28;20464;-72
2022/06/25 03:51:29;;;;;;;1.40;1.20;;;16.00;98.00;;;;;;4993722;28;20464;-71
2022/06/25 03:53:58;;;;;;;1.40;1.40;;;16.00;98.00;;;;;;4993839;28;20463;-72
2022/06/25 03:56:25;;;;;;;1.93;1.63;;;15.90;98.00;;;;;;4993436;28;20518;-71
2022/06/25 03:58:53;;;;;;;1.40;1.20;;;15.90;98.00;;;;;;4993683;28;20465;-72
2022/06/25 04:01:21;;;;;;;1.50;1.40;;;15.80;98.00;;;;;;4992174;28;20460;-71
2022/06/25 04:03:48;;;;;;;2.90;1.30;;;15.80;98.00;;;;;;4993381;28;20467;-72
2022/06/25 04:06:16;;;;;;;2.03;1.40;;;15.80;98.00;;;;;;4993331;28;20483;-72
2022/06/25 04:08:43;;;;;;;1.30;1.10;;;15.60;98.00;;;;;;4993448;28;20558;-71
2022/06/25 04:11:12;;;;;;;1.23;1.20;;;15.80;98.00;;;;;;4993233;28;20471;-72
2022/06/25 04:13:39;;;;;;;1.20;1.10;;;15.70;98.00;;;;;;4993254;28;20459;-71
2022/06/25 04:16:06;;;;;;;2.07;1.60;;;15.70;98.00;;;;;;4992593;28;20489;-72
2022/06/25 04:18:33;;;;;;;1.67;1.53;;;15.80;98.00;;;;;;4993241;28;20476;-71
2022/06/25 04:21:01;;;;;;;1.80;1.60;;;15.80;98.00;;;;;;4993075;28;20460;-71
2022/06/25 04:23:28;;;;;;;1.57;1.33;;;15.70;98.00;;;;;;4991925;28;20795;-72
2022/06/25 04:25:56;;;;;;;1.63;1.30;;;15.60;98.00;;;;;;4992973;28;20468;-72
2022/06/25 04:31:09;;;;;;;1.30;1.20;;;15.80;98.00;;;;;;4993002;28;20546;-71
2022/06/25 04:33:36;;;;;;;1.50;1.40;;;15.80;98.00;;;;;;4993046;28;20461;-71
2022/06/25 04:36:03;;;;;;;1.90;1.40;;;15.80;98.00;;;;;;4991401;28;20487;-71
2022/06/25 04:38:30;;;;;;;1.40;1.13;;;15.90;98.00;;;;;;4993095;28;20647;-72
2022/06/25 04:40:57;;;;;;;1.50;1.43;;;16.00;98.00;;;;;;4992968;28;20464;-71
2022/06/25 04:43:26;;;;;;;1.60;1.20;;;16.10;98.00;;;;;;4991659;28;20469;-72
2022/06/25 04:45:53;;;;;;;1.50;1.40;;;16.20;98.00;;;;;;4991080;28;20465;-71
2022/06/25 04:48:21;;;;;;;1.53;1.47;;;16.30;98.00;;;;;;4992770;28;20471;-72
2022/06/25 04:50:49;;;;;;;1.20;1.10;;;16.30;98.00;;;;;;4992617;28;20456;-72
2022/06/25 04:53:18;;;;;;;2.33;1.70;;;16.30;98.00;;;;;;4992468;28;20456;-71
2022/06/25 04:55:45;;;;;;;2.00;1.60;;;16.30;98.00;;;;;;4992494;28;20991;-72
2022/06/25 04:58:12;;;;;;;1.70;1.50;;;16.30;98.00;;;;;;4992298;28;20471;-71
2022/06/25 05:00:41;;;;;;;1.63;1.50;;;16.30;98.00;;;;;;4992348;28;20464;-72
2022/06/25 05:03:08;;;;;;;1.50;1.50;;;16.40;98.00;;;;;;4992410;28;20465;-72
2022/06/25 05:05:35;;;;;;;1.30;1.30;;;16.40;98.00;;;;;;4992256;28;20460;-71
2022/06/25 05:08:03;;;;;;;1.40;1.20;;;16.60;98.00;;;;;;4992163;28;20488;-72
2022/06/25 05:10:31;;;;;;;1.57;1.43;;;16.70;98.00;;;;;;4991972;28;20456;-71
2022/06/25 05:13:13;;;;;;;1.67;1.53;;;16.70;98.00;;;;;;4990948;28;20464;-71
2022/06/25 05:15:43;;;;;;;2.40;1.30;;;16.70;98.00;;;;;;4992157;28;20460;-71
2022/06/25 05:18:12;;;;;;;1.50;1.30;;;16.60;98.00;;;;;;4991083;28;20550;-71
2022/06/25 05:20:40;;;;;;;1.23;1.23;;;16.70;98.00;;;;;;4992120;28;20464;-71
2022/06/25 05:23:08;;;;;;;1.50;1.37;;;16.80;98.00;;;;;;4992132;28;20457;-72
2022/06/25 05:25:35;;;;;;;1.53;1.50;;;16.90;98.00;;;;;;4992235;28;20445;-71
2022/06/25 05:28:03;;;;;;;1.70;1.60;;;17.00;98.00;;;;;;4991263;28;20487;-72
2022/06/25 05:30:31;;;;;;;1.73;1.47;;;17.10;98.00;;;;;;4992135;28;20471;-71
2022/06/25 05:33:00;;;;;;;1.87;1.60;;;17.30;98.00;;;;;;4991050;28;20825;-71
2022/06/25 05:35:28;;;;;;;1.63;1.40;;;17.50;98.00;;;;;;4990750;28;20588;-71
2022/06/25 05:37:55;;;;;;;2.03;1.60;;;17.50;98.00;;;;;;4991937;28;20706;-72
2022/06/25 05:40:23;;;;;;;1.47;1.27;;;17.60;98.00;;;;;;4992197;28;20460;-71
2022/06/25 05:42:50;;;;;;;2.13;1.70;;;17.70;98.00;;;;;;4990940;28;20463;-71
2022/06/25 05:45:18;;;;;;;1.53;1.40;;;17.90;98.00;;;;;;4990649;28;20448;-71
2022/06/25 05:47:45;;;;;;;1.30;1.30;;;17.90;98.00;;;;;;4990382;28;20463;-71
2022/06/25 05:50:16;;;;;;;1.60;1.40;;;17.90;98.00;;;;;;4991699;28;20951;-71
2022/06/25 05:52:44;;;;;;;1.53;1.50;;;17.90;98.00;;;;;;4991685;28;20464;-72
2022/06/25 05:55:12;;;;;;;2.33;1.83;;;18.10;98.00;;;;;;4990366;28;20979;-72
2022/06/25 05:57:40;;;;;;;1.50;1.40;;;18.20;98.00;;;;;;4991629;28;20484;-71
2022/06/25 06:00:09;;;;;;;2.10;1.70;;;18.30;98.00;;;;;;4991676;28;20460;-71
2022/06/25 06:02:36;;;;;;;1.97;1.40;;;18.50;98.00;;;;;;4990320;28;20489;-71
2022/06/25 06:05:03;;;;;;;3.10;1.90;;;18.60;98.00;;;;;;4991535;28;20468;-71
2022/06/25 06:07:32;;;;;;;1.40;1.20;;;18.70;98.00;;;;;;4991902;28;20872;-72
2022/06/25 06:09:59;;;;;;;1.53;1.30;;;18.70;98.00;;;;;;4991579;28;20487;-71
2022/06/25 06:12:27;;;;;;;1.77;1.30;;;18.80;98.00;;;;;;4991498;28;20452;-71
2022/06/25 06:14:54;;;;;;;2.57;1.70;;;19.00;98.00;;;;;;4990397;28;20452;-72
2022/06/25 06:17:21;;;;;;;1.80;1.50;;;19.20;98.00;;;;;;4990227;28;20488;-71
2022/06/25 06:19:50;;;;;;;1.70;1.60;;;19.30;98.00;;;;;;4991588;28;20456;-72
2022/06/25 06:22:17;;;;;;;1.70;1.50;;;19.30;98.00;;;;;;4990282;28;20455;-71
2022/06/25 06:24:45;;;;;;;2.17;1.50;;;19.20;98.00;;;;;;4991392;28;20464;-72
2022/06/25 06:27:12;;;;;;;2.23;1.77;;;19.20;98.00;;;;;;4991306;28;20471;-70
2022/06/25 06:29:40;;;;;;;1.70;1.60;;;19.20;98.00;;;;;;4991476;28;20974;-71
2022/06/25 06:32:08;;;;;;;1.50;1.40;;;19.30;98.00;;;;;;4991461;28;20456;-70
2022/06/25 06:34:37;;;;;;;1.53;1.30;;;19.20;98.00;;;;;;4990428;28;20460;-70
2022/06/25 06:37:05;;;;;;;1.90;1.60;;;19.10;98.00;;;;;;4991467;28;20491;-73
2022/06/25 06:39:32;;;;;;;1.90;1.60;;;19.10;98.00;;;;;;4994797;28;20982;-72
2022/06/25 06:42:01;;;;;;;1.70;1.53;;;19.10;98.00;;;;;;4995960;28;20472;-72
2022/06/25 06:44:28;;;;;;;1.40;1.30;;;19.10;98.00;;;;;;4994699;28;20464;-71
2022/06/25 06:46:55;;;;;;;1.70;1.50;;;19.20;98.00;;;;;;4995673;28;20452;-70
2022/06/25 06:49:22;;;;;;;1.43;1.33;;;19.40;98.00;;;;;;4995731;28;20471;-71
2022/06/25 06:51:50;;;;;;;1.50;1.40;;;19.50;98.00;;;;;;4995568;28;20850;-71
2022/06/25 06:54:17;;;;;;;3.13;1.50;;;19.70;98.00;;;;;;4995527;28;21015;-74
2022/06/25 06:56:44;;;;;;;1.40;1.37;;;19.70;98.00;;;;;;4995560;28;20491;-70
2022/06/25 06:59:13;;;;;;;1.50;1.37;;;19.90;98.00;;;;;;4995375;28;20460;-70
2022/06/25 07:01:41;;;;;;;5.53;2.43;;;20.00;98.00;;;;;;4994202;28;20968;-70
2022/06/25 07:04:08;;;;;;;1.50;1.40;;;20.00;98.00;;;;;;4995225;28;20464;-70
2022/06/25 07:06:35;;;;;;;1.97;1.80;;;20.10;98.00;;;;;;4995295;28;20456;-72
2022/06/25 07:09:03;;;;;;;2.00;1.80;;;20.10;98.00;;;;;;4995255;28;20463;-70
2022/06/25 07:11:30;;;;;;;2.80;1.50;;;20.10;98.00;;;;;;4995207;28;20880;-71
2022/06/25 07:13:59;;;;;;;1.60;1.30;;;20.20;98.00;;;;;;4995285;28;20463;-72
2022/06/25 07:16:28;;;;;;;2.20;1.50;;;20.10;98.00;;;;;;4995238;28;20483;-71
2022/06/25 07:18:56;;;;;;;1.70;1.50;;;20.10;98.00;;;;;;4995133;28;20464;-70
2022/06/25 07:21:24;;;;;;;2.23;1.53;;;20.20;98.00;;;;;;4995151;28;20453;-71
2022/06/25 07:23:51;;;;;;;2.37;1.70;;;20.20;98.00;;;;;;5007236;28;20891;-72
2022/06/25 07:26:19;;;;;;;2.03;1.53;;;20.30;98.00;;;;;;4991460;28;20472;-71
2022/06/25 07:28:46;;;;;;;2.00;1.67;;;20.40;98.00;;;;;;4991566;28;21065;-72
2022/06/25 07:31:14;;;;;;;2.37;1.90;;;20.60;98.00;;;;;;4991450;28;20920;-70
2022/06/25 07:33:43;;;;;;;1.90;1.60;;;20.70;98.00;;;;;;4991531;28;20475;-71
2022/06/25 07:36:10;;;;;;;2.77;1.63;;;20.90;98.00;;;;;;4989695;28;20464;-71
2022/06/25 07:38:38;;;;;;;1.80;1.60;;;20.90;98.00;;;;;;4991387;28;21049;-71
2022/06/25 07:41:05;;;;;;;5.40;1.63;;;20.90;98.00;;;;;;4991300;28;20470;-69
2022/06/25 07:43:33;;;;;;;1.77;1.50;;;21.10;98.00;;;;;;4991387;28;20480;-69
2022/06/25 07:46:00;;;;;;;2.17;1.63;;;21.10;98.00;;;;;;4990952;28;20464;-68
2022/06/25 07:48:28;;;;;;;5.53;2.50;;;21.20;98.00;;;;;;4991127;28;20465;-70
2022/06/25 07:53:48;;;;;;;2.13;1.57;;;21.10;98.00;;;;;;4991091;28;20966;-69
2022/06/25 07:56:16;;;;;;;2.00;1.60;;;21.20;98.00;;;;;;4991115;28;20463;-68
2022/06/25 07:58:43;;;;;;;2.07;1.73;;;21.30;98.00;;;;;;4990913;28;20488;-69
2022/06/25 08:01:10;;;;;;;1.93;1.50;;;21.50;98.00;;;;;;4990741;28;20463;-69
2022/06/25 08:03:37;;;;;;;2.57;1.73;;;21.60;98.00;;;;;;4989553;28;20527;-70
2022/06/25 08:06:06;;;;;;;2.40;1.50;;;21.60;98.00;;;;;;4990684;28;20453;-69
2022/06/25 08:08:33;;;;;;;1.97;1.67;;;21.50;98.00;;;;;;4990686;28;20460;-69
2022/06/25 08:11:02;;;;;;;1.60;1.50;;;21.70;98.00;;;;;;4989371;28;20475;-70
2022/06/25 08:13:29;;;;;;;1.70;1.60;;;21.80;98.00;;;;;;4992220;28;20456;-71
2022/06/25 08:15:56;;;;;;;2.57;1.90;;;22.00;98.00;;;;;;4993179;28;20460;-69
2022/06/25 08:18:23;;;;;;;1.60;1.60;;;22.20;98.00;;;;;;4992999;28;20499;-70
2022/06/25 08:20:50;;;;;;;1.80;1.53;;;22.20;98.00;;;;;;4993165;28;20457;-69
2022/06/25 08:23:19;;;;;;;2.50;1.83;;;22.30;98.00;;;;;;4993041;28;20452;-69
2022/06/25 08:25:46;;;;;;;2.63;1.80;;;22.30;98.00;;;;;;4993048;28;20828;-70
2022/06/25 08:28:13;;;;;;;2.03;1.60;;;22.20;98.00;;;;;;4992922;28;20459;-69
2022/06/25 08:30:42;;;;;;;1.93;1.53;;;22.40;98.00;;;;;;4992744;28;20457;-69
2022/06/25 08:33:10;;;;;;;1.53;1.50;;;22.40;98.00;;;;;;4992960;28;20847;-70
2022/06/25 08:35:37;;;;;;;4.13;2.00;;;22.50;98.00;;;;;;4992845;28;20606;-70
2022/06/25 08:38:04;;;;;;;2.70;1.80;;;22.60;98.00;;;;;;4992982;28;20489;-70
2022/06/25 08:40:34;;;;;;;1.60;1.60;;;22.50;98.00;;;;;;4993055;28;20468;-71
2022/06/25 08:43:02;;;;;;;2.50;1.90;;;22.60;98.00;;;;;;4993052;28;20491;-70
2022/06/25 08:45:29;;;;;;;2.50;1.70;;;22.80;98.00;;;;;;4993384;28;20464;-70
2022/06/25 08:48:00;;;;;;;1.90;1.60;;;22.90;98.00;;;;;;4993246;28;20452;-69
2022/06/25 08:50:29;;;;;;;2.40;1.70;;;23.10;98.00;;;;;;4993096;28;20943;-70
2022/06/25 08:52:57;;;;;;;1.80;1.70;;;23.10;98.00;;;;;;4992854;28;20452;-70
2022/06/25 08:55:32;;;;;;;5.50;1.80;;;23.00;98.00;;;;;;4993184;28;20530;-70
2022/06/25 08:58:01;;;;;;;1.90;1.80;;;22.90;98.00;;;;;;4992527;28;20611;-69
2022/06/25 09:00:29;;;;;;;2.10;1.53;;;23.00;98.00;;;;;;4992344;28;20464;-70
2022/06/25 09:02:57;;;;;;;1.93;1.57;;;23.20;98.00;;;;;;4992286;28;20472;-70
2022/06/25 09:05:28;;;;;;;2.50;1.50;;;23.30;98.00;;;;;;4992883;28;20456;-69
2022/06/25 09:07:56;;;;;;;3.07;2.13;;;23.30;98.00;;;;;;4993276;28;20463;-70
2022/06/25 09:10:25;;;;;;;1.67;1.50;;;23.30;98.00;;;;;;4992828;28;20468;-69
2022/06/25 09:12:54;;;;;;;2.10;1.67;;;23.30;98.00;;;;;;4992203;28;20982;-70
2022/06/25 09:15:24;;;;;;;2.20;1.80;;;23.40;98.00;;;;;;4992209;28;20456;-69
2022/06/25 09:18:00;;;;;;;2.40;1.90;;;23.60;98.00;;;;;;4992190;28;20484;-70
2022/06/25 09:20:27;;;;;;;2.30;1.80;;;23.80;98.00;;;;;;4992215;28;20474;-69
2022/06/25 09:22:57;;;;;;;1.97;1.77;;;24.00;98.00;;;;;;4992009;28;20467;-70
2022/06/25 09:25:28;;;;;;;6.13;2.37;;;24.10;98.00;;;;;;4992235;28;20456;-70
2022/06/25 09:27:56;;;;;;;2.63;1.70;;;23.80;98.00;;;;;;4992154;28;20453;-69
2022/06/25 09:30:27;;;;;;;1.90;1.80;;;23.70;98.00;;;;;;4991977;28;20532;-69
2022/06/25 09:32:56;;;;;;;2.47;1.77;;;23.60;98.00;;;;;;4992110;28;20456;-69
2022/06/25 09:35:32;;;;;;;2.97;2.00;;;23.90;98.00;;;;;;4991830;28;20460;-69
2022/06/25 09:38:05;;;;;;;2.37;1.80;;;24.10;98.00;;;;;;4992110;28;20492;-70
2022/06/25 09:40:33;;;;;;;2.60;2.00;;;24.00;98.00;;;;;;4992067;28;20472;-69
2022/06/25 09:43:10;;;;;;;1.53;1.50;;;23.80;98.00;;;;;;4992052;28;20518;-70
2022/06/25 09:45:39;;;;;;;2.70;1.80;;;23.60;98.00;;;;;;4991776;28;20468;-69
2022/06/25 09:48:10;;;;;;;1.93;1.60;;;23.50;98.00;;;;;;4991912;28;20467;-70
2022/06/25 09:50:37;;;;;;;3.13;2.10;;;23.40;98.00;;;;;;4992041;28;20503;-69
2022/06/25 09:53:05;;;;;;;1.70;1.50;;;23.30;98.00;;;;;;4990684;28;20456;-69
2022/06/25 09:55:34;;;;;;;2.50;2.10;;;23.20;98.00;;;;;;4991820;28;20468;-70
2022/06/25 09:58:02;;;;;;;6.53;2.00;;;23.50;98.00;;;;;;4991648;28;20484;-69
2022/06/25 10:00:31;;;;;;;2.40;1.83;;;23.50;98.00;;;;;;4991686;28;20460;-69
2022/06/25 10:03:00;;;;;;;2.10;1.80;;;23.60;98.00;;;;;;4991561;28;20470;-69
2022/06/25 10:05:40;;;;;;;3.00;1.80;;;23.60;98.00;;;;;;4990440;28;20460;-69
2022/06/25 10:08:11;;;;;;;2.33;1.57;;;23.60;98.00;;;;;;4991516;28;20519;-70
2022/06/25 10:10:40;;;;;;;2.50;2.03;;;23.70;98.00;;;;;;4991647;28;20551;-70
2022/06/25 10:13:08;;;;;;;2.73;1.93;;;24.00;98.00;;;;;;4992272;28;20832;-69
2022/06/25 10:15:37;;;;;;;2.47;1.73;;;24.50;98.00;;;;;;4995738;28;20478;-69
2022/06/25 10:18:09;;;;;;;2.30;1.93;;;24.90;98.00;;;;;;4995137;28;20484;-69
2022/06/25 10:20:36;;;;;;;2.10;1.60;;;25.20;98.00;;;;;;4995455;28;20526;-69
2022/06/25 10:23:06;;;;;;;2.20;1.90;;;25.40;98.00;;;;;;4994890;28;20472;-69
2022/06/25 10:25:35;;;;;;;1.80;1.63;;;25.80;98.00;;;;;;4994992;28;20456;-72
2022/06/25 10:28:07;;;;;;;2.57;1.97;;;26.00;97.20;;;;;;4995207;28;20483;-72
2022/06/25 10:30:45;;;;;;;2.47;1.80;;;26.10;98.00;;;;;;4995381;28;20461;-72
2022/06/25 10:33:15;;;;;;;6.60;1.90;;;26.10;96.80;;;;;;4994029;28;20460;-72
2022/06/25 10:35:44;;;;;;;2.40;2.00;;;25.60;98.00;;;;;;4995633;28;20464;-74
2022/06/25 10:38:12;;;;;;;3.20;1.87;;;25.60;98.00;;;;;;4995822;28;20479;-74
2022/06/25 10:40:58;;;;;;;2.70;1.90;;;25.60;94.60;;;;;;4995968;28;20487;-74
2022/06/25 10:43:42;;;;;;;2.60;2.00;;;25.60;94.30;;;;;;4996437;28;20456;-74
2022/06/25 10:46:31;;;;;;;2.37;1.73;;;25.40;96.00;;;;;;4995796;28;20468;-74
2022/06/25 10:49:10;;;;;;;2.97;2.20;;;25.20;95.90;;;;;;4995920;28;20470;-74
2022/06/25 10:51:45;;;;;;;3.80;1.60;;;25.10;97.10;;;;;;4995582;28;20460;-70
2022/06/25 10:54:36;;;;;;;3.67;1.63;;;24.90;95.80;;;;;;4995602;28;20491;-70
2022/06/25 10:57:05;;;;;;;2.30;1.70;;;24.90;98.00;;;;;;4995336;28;20514;-70
2022/06/25 10:59:46;;;;;;;1.97;1.77;;;25.00;98.00;;;;;;4995321;28;20542;-68
2022/06/25 11:02:15;;;;;;;2.27;1.70;;;25.30;96.70;;;;;;4995047;28;20464;-70
2022/06/25 11:04:52;;;;;;;2.60;2.00;;;25.70;96.30;;;;;;4995211;28;20461;-68
2022/06/25 11:07:21;;;;;;;3.10;2.10;;;26.00;96.80;;;;;;4995194;28;20518;-71
2022/06/25 11:09:58;;;;;;;2.50;2.00;;;26.00;96.20;;;;;;4994041;28;20456;-71
2022/06/25 11:12:28;;;;;;;5.10;2.53;;;26.10;96.70;;;;;;4995303;28;20459;-71
2022/06/25 11:15:00;;;;;;;2.37;1.87;;;26.00;94.70;;;;;;4994891;28;20882;-68
2022/06/25 11:17:28;;;;;;;1.87;1.67;;;25.60;94.00;;;;;;4994755;28;20459;-71
2022/06/25 11:20:03;;;;;;;2.70;1.70;;;25.40;95.80;;;;;;4994454;28;20484;-69
2022/06/25 11:22:30;;;;;;;3.30;1.90;;;25.40;96.70;;;;;;4995030;28;20551;-69
2022/06/25 11:30:30;;;;;;;2.40;2.00;;;25.80;93.40;;;;;;4994829;28;20950;-75
2022/06/25 11:32:57;;;;;;;2.30;1.80;;;25.90;96.40;;;;;;4994489;28;20463;-75
2022/06/25 11:35:39;;;;;;;2.17;1.80;;;26.20;94.80;;;;;;4993338;28;20932;-75
2022/06/25 11:38:14;;;;;;;1.83;1.80;;;26.40;92.20;;;;;;4994829;28;20484;-74
2022/06/25 11:40:41;;;;;;;2.63;2.00;;;26.40;95.10;;;;;;4994917;28;21196;-76
2022/06/25 11:43:09;;;;;;;2.00;1.70;;;26.20;91.30;;;;;;4994924;28;20951;-74
2022/06/25 11:45:48;;;;;;;2.53;1.77;;;26.00;91.00;;;;;;4994817;28;21026;-73
2022/06/25 11:48:16;;;;;;;2.37;1.97;;;26.20;92.90;;;;;;4994787;28;20824;-75
2022/06/25 11:50:45;;;;;;;2.43;1.87;;;26.50;89.40;;;;;;4993961;28;20514;-75
2022/06/25 11:53:13;;;;;;;4.27;1.67;;;26.60;90.60;;;;;;4993708;28;20511;-74
2022/06/25 11:55:40;;;;;;;2.10;1.80;;;26.60;89.80;;;;;;4992787;28;20463;-74
2022/06/25 11:58:10;;;;;;;2.00;1.80;;;26.30;89.80;;;;;;4993868;28;20489;-73
2022/06/25 12:00:39;;;;;;;2.83;1.90;;;26.60;91.60;;;;;;4993645;28;20500;-73
2022/06/25 12:03:06;;;;;;;2.03;1.70;;;26.80;87.50;;;;;;4993387;28;20480;-70
2022/06/25 12:05:34;;;;;;;2.80;1.90;;;26.90;88.20;;;;;;4993385;28;20463;-71
2022/06/25 12:08:02;;;;;;;2.23;1.70;;;27.20;85.40;;;;;;4993382;28;20458;-70
2022/06/25 12:10:30;;;;;;;1.80;1.60;;;27.40;83.30;;;;;;4993568;28;20460;-70
2022/06/25 12:12:58;;;;;;;2.37;1.87;;;27.50;84.40;;;;;;4993529;28;20472;-70
2022/06/25 12:15:33;;;;;;;2.20;1.77;;;27.70;85.60;;;;;;4993283;28;20468;-69
2022/06/25 12:18:05;;;;;;;4.03;2.00;;;27.70;86.30;;;;;;4993183;28;20470;-69
2022/06/25 12:20:35;;;;;;;1.53;1.47;;;27.80;84.90;;;;;;4993181;28;20456;-71
2022/06/25 12:23:04;;;;;;;2.40;1.80;;;28.10;84.80;;;;;;4993210;28;20469;-70
2022/06/25 12:25:33;;;;;;;1.90;1.60;;;28.30;82.10;;;;;;4993232;28;20835;-71
2022/06/25 12:28:01;;;;;;;2.10;1.87;;;28.40;80.30;;;;;;4993154;28;20456;-72
2022/06/25 12:30:31;;;;;;;1.97;1.50;;;28.70;82.00;;;;;;4992804;28;20453;-72
2022/06/25 12:33:04;;;;;;;2.30;1.83;;;29.00;82.70;;;;;;4992924;28;20475;-71
2022/06/25 12:35:33;;;;;;;2.30;1.97;;;29.10;81.90;;;;;;4992561;28;20456;-71
2022/06/25 12:38:04;;;;;;;2.60;1.80;;;29.20;80.40;;;;;;4992968;28;20456;-70
2022/06/25 12:40:32;;;;;;;2.10;1.70;;;29.40;81.80;;;;;;4992880;28;20475;-71
2022/06/25 12:43:01;;;;;;;3.53;2.27;;;29.50;81.60;;;;;;4992870;28;20763;-71
2022/06/25 12:45:31;;;;;;;1.73;1.70;;;29.60;83.20;;;;;;4992693;28;20472;-71
2022/06/25 12:47:58;;;;;;;2.10;1.70;;;29.70;76.40;;;;;;4992787;28;20981;-70
2022/06/25 12:50:27;;;;;;;2.37;1.80;;;29.70;81.60;;;;;;4992769;28;20529;-71
2022/06/25 12:52:55;;;;;;;2.13;1.87;;;29.70;80.10;;;;;;4992883;28;20464;-70
2022/06/25 12:55:26;;;;;;;2.50;1.77;;;29.80;78.80;;;;;;4991374;28;20464;-72
2022/06/25 12:57:53;;;;;;;2.03;1.80;;;30.00;77.10;;;;;;4992573;28;20460;-76
2022/06/25 13:00:23;;;;;;;2.60;2.03;;;30.00;81.60;;;;;;4992253;28;20491;-75
2022/06/25 13:02:51;;;;;;;2.30;1.80;;;30.10;81.80;;;;;;4992379;28;20484;-70
2022/06/25 13:05:19;;;;;;;2.67;1.60;;;30.10;79.40;;;;;;4992279;28;20994;-70
2022/06/25 13:07:47;;;;;;;2.70;1.70;;;30.10;80.20;;;;;;4992498;28;20460;-70
2022/06/25 13:10:16;;;;;;;2.10;1.80;;;30.10;80.30;;;;;;4992473;28;20460;-68
2022/06/25 13:12:45;;;;;;;1.83;1.80;;;30.20;79.20;;;;;;4992298;28;20471;-70